Terminal Aerodrome Forecast
Issued by NWS Shreveport, LA

Current Version | Previous Version | Text Only | Print | Product List | Glossary On
Versions: 1 2 3 4 5 6 7 8 9 10 11 12 13 14 15 16 17 18 19 20 21 22 23
045
FTUS44 KSHV 232040 AAA
TAFMLU
TAF AMD
KMLU 232040Z 2321/2418 18009G15KT P6SM SKC
     FM240000 16004KT P6SM SKC
     FM241200 15009KT P6SM SCT015 BKN025
     FM241600 17010G18KT P6SM OVC025=

USA.gov is the U.S. government's official web portal to all federal, state and local government web resources and services.